sensor_id;sensor_type;location;lat;lon;timestamp;pressure;altitude;pressure_sealevel;temperature;humidity
22566;BME280;11449;51.330;19.378;2022-11-28T00:04:11;100343.58;;;8.56;100.00
22566;BME280;11449;51.330;19.378;2022-11-28T00:09:13;100340.98;;;8.59;100.00
22566;BME280;11449;51.330;19.378;2022-11-28T00:14:16;100344.41;;;8.69;100.00
22566;BME280;11449;51.330;19.378;2022-11-28T00:19:17;100341.77;;;8.72;100.00
22566;BME280;11449;51.330;19.378;2022-11-28T00:24:18;100329.28;;;8.35;100.00
22566;BME280;11449;51.330;19.378;2022-11-28T00:29:19;100327.11;;;9.16;100.00
22566;BME280;11449;51.330;19.378;2022-11-28T00:34:21;100331.72;;;8.79;100.00
22566;BME280;11449;51.330;19.378;2022-11-28T00:39:22;100327.90;;;10.26;100.00
22566;BME280;11449;51.330;19.378;2022-11-28T00:44:24;100316.54;;;9.28;100.00
22566;BME280;11449;51.330;19.378;2022-11-28T00:49:25;100311.25;;;8.65;100.00
22566;BME280;11449;51.330;19.378;2022-11-28T00:54:26;100296.52;;;10.15;100.00
22566;BME280;11449;51.330;19.378;2022-11-28T00:59:27;100288.84;;;9.94;100.00
22566;BME280;11449;51.330;19.378;2022-11-28T01:04:28;100283.17;;;9.46;100.00
22566;BME280;11449;51.330;19.378;2022-11-28T01:09:30;100283.73;;;9.32;100.00
22566;BME280;11449;51.330;19.378;2022-11-28T01:14:31;100278.91;;;8.73;100.00
22566;BME280;11449;51.330;19.378;2022-11-28T01:19:32;100276.79;;;9.76;100.00
22566;BME280;11449;51.330;19.378;2022-11-28T01:24:33;100264.97;;;8.71;100.00
22566;BME280;11449;51.330;19.378;2022-11-28T01:29:34;100263.27;;;9.23;100.00
22566;BME280;11449;51.330;19.378;2022-11-28T01:34:35;100255.69;;;8.83;100.00
22566;BME280;11449;51.330;19.378;2022-11-28T01:39:37;100247.73;;;9.52;100.00
22566;BME280;11449;51.330;19.378;2022-11-28T01:49:52;100231.84;;;8.61;100.00
22566;BME280;11449;51.330;19.378;2022-11-28T01:54:56;100234.64;;;10.29;100.00
22566;BME280;11449;51.330;19.378;2022-11-28T02:00:05;100219.80;;;9.47;100.00
22566;BME280;11449;51.330;19.378;2022-11-28T02:05:08;100209.74;;;9.46;100.00
22566;BME280;11449;51.330;19.378;2022-11-28T02:10:12;100202.55;;;9.65;100.00
22566;BME280;11449;51.330;19.378;2022-11-28T02:26:02;100192.73;;;9.43;100.00
22566;BME280;11449;51.330;19.378;2022-11-28T02:36:28;100201.00;;;9.49;100.00
22566;BME280;11449;51.330;19.378;2022-11-28T02:41:33;100192.70;;;9.87;100.00
22566;BME280;11449;51.330;19.378;2022-11-28T02:46:57;100189.57;;;9.08;100.00
22566;BME280;11449;51.330;19.378;2022-11-28T02:52:06;100189.53;;;9.14;100.00
22566;BME280;11449;51.330;19.378;2022-11-28T02:57:07;100185.08;;;8.68;100.00
22566;BME280;11449;51.330;19.378;2022-11-28T03:02:26;100187.28;;;9.63;100.00
22566;BME280;11449;51.330;19.378;2022-11-28T03:13:33;100169.84;;;9.16;100.00
22566;BME280;11449;51.330;19.378;2022-11-28T03:18:13;100169.80;;;9.22;100.00
22566;BME280;11449;51.330;19.378;2022-11-28T03:23:21;100165.44;;;8.71;100.00
22566;BME280;11449;51.330;19.378;2022-11-28T03:28:30;100167.91;;;8.88;100.00
22566;BME280;11449;51.330;19.378;2022-11-28T03:33:35;100165.66;;;8.98;100.00
22566;BME280;11449;51.330;19.378;2022-11-28T03:38:40;100157.25;;;9.51;100.00
22566;BME280;11449;51.330;19.378;2022-11-28T03:43:45;100169.44;;;9.12;100.00
22566;BME280;11449;51.330;19.378;2022-11-28T03:48:49;100170.05;;;9.80;100.00
22566;BME280;11449;51.330;19.378;2022-11-28T03:59:12;100153.42;;;8.98;100.00
22566;BME280;11449;51.330;19.378;2022-11-28T04:09:36;100144.11;;;9.12;100.00
22566;BME280;11449;51.330;19.378;2022-11-28T04:14:46;100137.16;;;9.08;100.00
22566;BME280;11449;51.330;19.378;2022-11-28T04:24:56;100148.03;;;9.54;100.00
22566;BME280;11449;51.330;19.378;2022-11-28T04:29:57;100143.16;;;9.21;100.00
22566;BME280;11449;51.330;19.378;2022-11-28T04:35:09;100139.28;;;9.55;100.00
22566;BME280;11449;51.330;19.378;2022-11-28T04:40:10;100127.33;;;8.85;100.00
22566;BME280;11449;51.330;19.378;2022-11-28T04:45:18;100130.25;;;8.99;100.00
22566;BME280;11449;51.330;19.378;2022-11-28T04:50:22;100124.52;;;9.82;100.00
22566;BME280;11449;51.330;19.378;2022-11-28T05:00:35;100120.88;;;8.74;100.00
22566;BME280;11449;51.330;19.378;2022-11-28T05:05:43;100126.17;;;9.57;100.00
22566;BME280;11449;51.330;19.378;2022-11-28T05:10:45;100123.45;;;9.64;100.00
22566;BME280;11449;51.330;19.378;2022-11-28T05:15:46;100126.09;;;8.76;100.00
22566;BME280;11449;51.330;19.378;2022-11-28T05:20:47;100126.08;;;8.16;100.00
22566;BME280;11449;51.330;19.378;2022-11-28T05:25:49;100122.16;;;8.09;100.00
22566;BME280;11449;51.330;19.378;2022-11-28T05:30:58;100118.56;;;8.35;100.00
22566;BME280;11449;51.330;19.378;2022-11-28T05:36:05;100122.95;;;8.31;100.00
22566;BME280;11449;51.330;19.378;2022-11-28T05:41:07;100116.79;;;7.54;100.00
22566;BME280;11449;51.330;19.378;2022-11-28T05:46:08;100123.89;;;8.13;100.00
22566;BME280;11449;51.330;19.378;2022-11-28T05:51:09;100125.60;;;9.29;100.00
22566;BME280;11449;51.330;19.378;2022-11-28T05:56:14;100129.14;;;8.10;100.00
22566;BME280;11449;51.330;19.378;2022-11-28T06:01:21;100129.88;;;8.38;100.00
22566;BME280;11449;51.330;19.378;2022-11-28T06:06:23;100124.59;;;8.44;100.00
22566;BME280;11449;51.330;19.378;2022-11-28T06:11:25;100121.66;;;8.85;100.00
22566;BME280;11449;51.330;19.378;2022-11-28T06:16:28;100119.53;;;9.24;100.00
22566;BME280;11449;51.330;19.378;2022-11-28T06:21:31;100123.34;;;8.40;100.00
22566;BME280;11449;51.330;19.378;2022-11-28T06:26:32;100120.81;;;8.17;100.00
22566;BME280;11449;51.330;19.378;2022-11-28T06:31:33;100121.95;;;9.01;100.00
22566;BME280;11449;51.330;19.378;2022-11-28T06:36:34;100124.09;;;8.54;100.00
22566;BME280;11449;51.330;19.378;2022-11-28T06:41:35;100127.46;;;8.70;100.00
22566;BME280;11449;51.330;19.378;2022-11-28T06:46:37;100129.00;;;8.38;100.00
22566;BME280;11449;51.330;19.378;2022-11-28T06:51:39;100127.19;;;9.01;100.00
22566;BME280;11449;51.330;19.378;2022-11-28T06:56:41;100132.27;;;8.69;100.00
22566;BME280;11449;51.330;19.378;2022-11-28T07:01:43;100130.45;;;9.25;100.00
22566;BME280;11449;51.330;19.378;2022-11-28T07:06:45;100130.45;;;9.25;100.00
22566;BME280;11449;51.330;19.378;2022-11-28T07:11:46;100127.05;;;8.64;100.00
22566;BME280;11449;51.330;19.378;2022-11-28T07:16:47;100122.95;;;8.28;100.00
22566;BME280;11449;51.330;19.378;2022-11-28T07:21:49;100113.76;;;8.88;100.00
22566;BME280;11449;51.330;19.378;2022-11-28T07:26:50;100109.93;;;8.15;100.00
22566;BME280;11449;51.330;19.378;2022-11-28T07:31:51;100103.03;;;8.04;100.00
22566;BME280;11449;51.330;19.378;2022-11-28T07:36:52;100102.31;;;8.52;100.00
22566;BME280;11449;51.330;19.378;2022-11-28T07:41:53;100102.31;;;8.52;100.00
22566;BME280;11449;51.330;19.378;2022-11-28T07:46:55;100108.97;;;8.34;100.00
22566;BME280;11449;51.330;19.378;2022-11-28T07:51:57;100102.91;;;8.24;100.00
22566;BME280;11449;51.330;19.378;2022-11-28T07:56:58;100103.34;;;8.22;100.00
22566;BME280;11449;51.330;19.378;2022-11-28T08:01:59;100091.13;;;8.23;100.00
22566;BME280;11449;51.330;19.378;2022-11-28T08:07:00;100098.09;;;8.31;100.00
22566;BME280;11449;51.330;19.378;2022-11-28T08:12:01;100102.21;;;8.61;100.00
22566;BME280;11449;51.330;19.378;2022-11-28T08:17:03;100083.51;;;8.52;100.00
22566;BME280;11449;51.330;19.378;2022-11-28T08:22:04;100083.91;;;8.58;100.00
22566;BME280;11449;51.330;19.378;2022-11-28T08:27:05;100091.37;;;9.00;100.00
22566;BME280;11449;51.330;19.378;2022-11-28T08:32:07;100084.37;;;8.53;100.00
22566;BME280;11449;51.330;19.378;2022-11-28T08:37:08;100089.03;;;8.11;100.00
22566;BME280;11449;51.330;19.378;2022-11-28T08:42:09;100086.43;;;8.69;100.00
22566;BME280;11449;51.330;19.378;2022-11-28T08:47:11;100085.69;;;8.53;100.00
22566;BME280;11449;51.330;19.378;2022-11-28T08:52:12;100085.69;;;8.53;100.00
22566;BME280;11449;51.330;19.378;2022-11-28T08:57:13;100080.58;;;8.89;100.00
22566;BME280;11449;51.330;19.378;2022-11-28T09:02:14;100085.32;;;8.47;100.00
22566;BME280;11449;51.330;19.378;2022-11-28T09:07:15;100075.33;;;8.89;100.00
22566;BME280;11449;51.330;19.378;2022-11-28T09:12:17;100072.34;;;9.22;100.00
22566;BME280;11449;51.330;19.378;2022-11-28T09:17:18;100061.69;;;8.53;100.00
22566;BME280;11449;51.330;19.378;2022-11-28T09:22:19;100069.27;;;8.84;100.00
22566;BME280;11449;51.330;19.378;2022-11-28T09:27:20;100069.27;;;8.84;100.00
22566;BME280;11449;51.330;19.378;2022-11-28T09:32:21;100053.33;;;8.63;100.00
22566;BME280;11449;51.330;19.378;2022-11-28T09:37:23;100045.39;;;9.13;100.00
22566;BME280;11449;51.330;19.378;2022-11-28T09:42:37;100052.69;;;9.58;100.00
22566;BME280;11449;51.330;19.378;2022-11-28T09:47:39;100047.45;;;9.58;100.00
22566;BME280;11449;51.330;19.378;2022-11-28T09:58:18;100036.19;;;9.50;100.00
22566;BME280;11449;51.330;19.378;2022-11-28T10:03:27;100034.11;;;10.05;100.00
22566;BME280;11449;51.330;19.378;2022-11-28T10:19:56;99994.48;;;9.30;100.00
22566;BME280;11449;51.330;19.378;2022-11-28T10:24:57;99994.77;;;9.08;100.00
22566;BME280;11449;51.330;19.378;2022-11-28T10:30:01;99995.66;;;10.02;100.00
22566;BME280;11449;51.330;19.378;2022-11-28T10:46:38;99977.55;;;8.48;100.00
22566;BME280;11449;51.330;19.378;2022-11-28T10:51:18;99981.17;;;9.47;100.00
22566;BME280;11449;51.330;19.378;2022-11-28T11:01:36;99967.48;;;10.41;100.00
22566;BME280;11449;51.330;19.378;2022-11-28T11:06:38;99971.08;;;9.17;100.00
22566;BME280;11449;51.330;19.378;2022-11-28T11:11:42;99969.55;;;10.23;100.00
22566;BME280;11449;51.330;19.378;2022-11-28T11:16:53;99967.36;;;10.71;100.00
22566;BME280;11449;51.330;19.378;2022-11-28T11:27:22;99962.28;;;9.83;100.00
22566;BME280;11449;51.330;19.378;2022-11-28T11:32:27;99964.39;;;9.59;100.00
22566;BME280;11449;51.330;19.378;2022-11-28T11:37:35;99963.28;;;10.03;100.00
22566;BME280;11449;51.330;19.378;2022-11-28T11:42:38;99951.14;;;9.03;100.00
22566;BME280;11449;51.330;19.378;2022-11-28T11:47:43;99945.19;;;9.85;100.00
22566;BME280;11449;51.330;19.378;2022-11-28T11:53:02;99936.83;;;10.42;100.00
22566;BME280;11449;51.330;19.378;2022-11-28T11:58:04;99942.38;;;9.97;100.00
22566;BME280;11449;51.330;19.378;2022-11-28T12:04:03;99932.59;;;10.35;100.00
22566;BME280;11449;51.330;19.378;2022-11-28T12:13:26;99911.73;;;9.99;100.00
22566;BME280;11449;51.330;19.378;2022-11-28T12:18:44;99907.36;;;9.99;100.00
22566;BME280;11449;51.330;19.378;2022-11-28T12:39:55;99905.51;;;9.49;100.00
22566;BME280;11449;51.330;19.378;2022-11-28T12:55:42;99898.73;;;9.03;100.00
22566;BME280;11449;51.330;19.378;2022-11-28T13:01:19;99896.05;;;9.41;100.00
22566;BME280;11449;51.330;19.378;2022-11-28T13:06:31;99892.52;;;9.70;100.00
22566;BME280;11449;51.330;19.378;2022-11-28T13:16:47;99889.69;;;9.84;100.00
22566;BME280;11449;51.330;19.378;2022-11-28T13:27:38;99886.39;;;9.96;100.00
22566;BME280;11449;51.330;19.378;2022-11-28T13:33:50;99883.02;;;9.03;100.00
22566;BME280;11449;51.330;19.378;2022-11-28T13:43:22;99883.72;;;9.46;100.00
22566;BME280;11449;51.330;19.378;2022-11-28T13:53:39;99872.69;;;9.26;100.00
22566;BME280;11449;51.330;19.378;2022-11-28T14:09:14;99879.53;;;9.63;100.00
22566;BME280;11449;51.330;19.378;2022-11-28T14:14:16;99867.23;;;9.10;100.00
22566;BME280;11449;51.330;19.378;2022-11-28T14:29:46;99864.53;;;9.71;100.00
22566;BME280;11449;51.330;19.378;2022-11-28T14:34:48;99865.46;;;9.93;100.00
22566;BME280;11449;51.330;19.378;2022-11-28T14:39:50;99867.39;;;9.84;100.00
22566;BME280;11449;51.330;19.378;2022-11-28T14:44:53;99868.48;;;9.42;100.00
22566;BME280;11449;51.330;19.378;2022-11-28T14:55:22;99877.30;;;9.65;100.00
22566;BME280;11449;51.330;19.378;2022-11-28T15:15:56;99869.91;;;9.35;100.00
22566;BME280;11449;51.330;19.378;2022-11-28T15:21:01;99873.41;;;9.05;100.00
22566;BME280;11449;51.330;19.378;2022-11-28T15:26:04;99873.41;;;9.05;100.00
22566;BME280;11449;51.330;19.378;2022-11-28T15:31:06;99872.20;;;8.96;100.00
22566;BME280;11449;51.330;19.378;2022-11-28T15:36:27;99864.16;;;8.77;100.00
22566;BME280;11449;51.330;19.378;2022-11-28T15:41:29;99861.88;;;8.51;100.00
22566;BME280;11449;51.330;19.378;2022-11-28T15:46:33;99864.21;;;9.37;100.00
22566;BME280;11449;51.330;19.378;2022-11-28T15:51:34;99860.11;;;10.25;100.00
22566;BME280;11449;51.330;19.378;2022-11-28T15:56:36;99855.11;;;9.59;100.00
22566;BME280;11449;51.330;19.378;2022-11-28T16:01:38;99850.98;;;10.22;100.00
22566;BME280;11449;51.330;19.378;2022-11-28T16:06:42;99850.98;;;10.22;100.00
22566;BME280;11449;51.330;19.378;2022-11-28T16:11:47;99847.48;;;8.06;100.00
22566;BME280;11449;51.330;19.378;2022-11-28T16:16:49;99860.05;;;7.70;100.00
22566;BME280;11449;51.330;19.378;2022-11-28T16:21:59;99857.95;;;8.84;100.00
22566;BME280;11449;51.330;19.378;2022-11-28T16:27:02;99857.97;;;7.58;100.00
22566;BME280;11449;51.330;19.378;2022-11-28T16:32:08;99869.90;;;8.36;100.00
22566;BME280;11449;51.330;19.378;2022-11-28T16:37:11;99864.16;;;7.45;100.00
22566;BME280;11449;51.330;19.378;2022-11-28T16:42:16;99867.98;;;7.56;100.00
22566;BME280;11449;51.330;19.378;2022-11-28T16:47:25;99867.31;;;7.28;100.00
22566;BME280;11449;51.330;19.378;2022-11-28T16:57:44;99871.23;;;7.30;100.00
22566;BME280;11449;51.330;19.378;2022-11-28T17:02:51;99874.02;;;7.64;100.00
22566;BME280;11449;51.330;19.378;2022-11-28T17:07:53;99883.73;;;7.48;100.00
22566;BME280;11449;51.330;19.378;2022-11-28T17:12:54;99887.67;;;7.44;100.00
22566;BME280;11449;51.330;19.378;2022-11-28T17:17:56;99888.11;;;7.45;100.00
22566;BME280;11449;51.330;19.378;2022-11-28T17:22:58;99881.17;;;7.95;100.00
22566;BME280;11449;51.330;19.378;2022-11-28T17:28:00;99885.16;;;8.74;100.00
22566;BME280;11449;51.330;19.378;2022-11-28T17:33:01;99886.53;;;7.80;100.00
22566;BME280;11449;51.330;19.378;2022-11-28T17:38:04;99892.59;;;8.33;100.00
22566;BME280;11449;51.330;19.378;2022-11-28T17:43:05;99889.19;;;8.25;100.00
22566;BME280;11449;51.330;19.378;2022-11-28T17:48:07;99898.36;;;7.72;100.00
22566;BME280;11449;51.330;19.378;2022-11-28T17:53:14;99893.16;;;8.96;100.00
22566;BME280;11449;51.330;19.378;2022-11-28T17:58:21;99892.88;;;7.50;100.00
22566;BME280;11449;51.330;19.378;2022-11-28T18:03:26;99888.90;;;7.56;100.00
22566;BME280;11449;51.330;19.378;2022-11-28T18:08:27;99888.90;;;7.56;100.00
22566;BME280;11449;51.330;19.378;2022-11-28T18:13:30;99893.94;;;7.80;100.00
22566;BME280;11449;51.330;19.378;2022-11-28T18:18:31;99893.94;;;7.80;100.00
22566;BME280;11449;51.330;19.378;2022-11-28T18:23:39;99886.02;;;7.35;100.00
22566;BME280;11449;51.330;19.378;2022-11-28T18:28:42;99893.03;;;7.26;100.00
22566;BME280;11449;51.330;19.378;2022-11-28T18:33:43;99884.72;;;7.88;100.00
22566;BME280;11449;51.330;19.378;2022-11-28T18:38:47;99896.83;;;7.47;100.00
22566;BME280;11449;51.330;19.378;2022-11-28T18:43:54;99894.56;;;7.55;100.00
22566;BME280;11449;51.330;19.378;2022-11-28T18:48:56;99896.88;;;7.38;100.00
22566;BME280;11449;51.330;19.378;2022-11-28T18:53:58;99899.75;;;6.91;100.00
22566;BME280;11449;51.330;19.378;2022-11-28T18:59:02;99896.12;;;7.16;100.00
22566;BME280;11449;51.330;19.378;2022-11-28T19:04:08;99897.15;;;6.92;100.00
22566;BME280;11449;51.330;19.378;2022-11-28T19:09:13;99904.00;;;7.08;100.00
22566;BME280;11449;51.330;19.378;2022-11-28T19:14:16;99899.83;;;6.71;100.00
22566;BME280;11449;51.330;19.378;2022-11-28T19:19:18;99903.13;;;7.09;100.00
22566;BME280;11449;51.330;19.378;2022-11-28T19:24:22;99901.15;;;7.48;100.00
22566;BME280;11449;51.330;19.378;2022-11-28T19:29:23;99901.15;;;7.48;100.00
22566;BME280;11449;51.330;19.378;2022-11-28T19:34:25;99898.25;;;6.12;100.00
22566;BME280;11449;51.330;19.378;2022-11-28T19:39:28;99895.20;;;6.11;100.00
22566;BME280;11449;51.330;19.378;2022-11-28T19:44:30;99898.23;;;6.20;100.00
22566;BME280;11449;51.330;19.378;2022-11-28T19:49:32;99898.23;;;6.20;100.00
22566;BME280;11449;51.330;19.378;2022-11-28T19:54:33;99898.23;;;6.20;100.00
22566;BME280;11449;51.330;19.378;2022-11-28T19:59:35;99893.02;;;6.15;100.00
22566;BME280;11449;51.330;19.378;2022-11-28T20:04:37;99901.27;;;6.33;100.00
22566;BME280;11449;51.330;19.378;2022-11-28T20:09:38;99911.25;;;6.31;100.00
22566;BME280;11449;51.330;19.378;2022-11-28T20:14:39;99908.60;;;6.52;100.00
22566;BME280;11449;51.330;19.378;2022-11-28T20:19:40;99909.91;;;6.47;100.00
22566;BME280;11449;51.330;19.378;2022-11-28T20:24:42;99912.56;;;6.28;100.00
22566;BME280;11449;51.330;19.378;2022-11-28T20:29:43;99911.70;;;6.19;100.00
22566;BME280;11449;51.330;19.378;2022-11-28T20:34:44;99910.27;;;6.76;100.00
22566;BME280;11449;51.330;19.378;2022-11-28T20:39:46;99913.44;;;6.28;100.00
22566;BME280;11449;51.330;19.378;2022-11-28T20:44:47;99919.44;;;6.62;100.00
22566;BME280;11449;51.330;19.378;2022-11-28T20:49:49;99917.81;;;6.12;100.00
22566;BME280;11449;51.330;19.378;2022-11-28T20:54:50;99923.05;;;6.06;100.00
22566;BME280;11449;51.330;19.378;2022-11-28T20:59:51;99925.55;;;6.56;100.00
22566;BME280;11449;51.330;19.378;2022-11-28T21:04:54;99925.11;;;6.54;100.00
22566;BME280;11449;51.330;19.378;2022-11-28T21:09:55;99925.18;;;6.24;100.00
22566;BME280;11449;51.330;19.378;2022-11-28T21:14:58;99925.63;;;6.03;100.00
22566;BME280;11449;51.330;19.378;2022-11-28T21:20:00;99925.63;;;6.03;100.00
22566;BME280;11449;51.330;19.378;2022-11-28T21:25:01;99927.83;;;5.98;100.00
22566;BME280;11449;51.330;19.378;2022-11-28T21:30:03;99924.75;;;6.19;100.00
22566;BME280;11449;51.330;19.378;2022-11-28T21:35:05;99926.90;;;6.31;100.00
22566;BME280;11449;51.330;19.378;2022-11-28T21:40:07;99926.90;;;6.31;100.00
22566;BME280;11449;51.330;19.378;2022-11-28T21:45:09;99926.90;;;6.31;100.00
22566;BME280;11449;51.330;19.378;2022-11-28T21:50:11;99928.64;;;5.80;100.00
22566;BME280;11449;51.330;19.378;2022-11-28T21:55:13;99928.64;;;5.80;100.00
22566;BME280;11449;51.330;19.378;2022-11-28T22:00:16;99930.38;;;6.45;100.00
22566;BME280;11449;51.330;19.378;2022-11-28T22:05:19;99928.70;;;5.98;100.00
22566;BME280;11449;51.330;19.378;2022-11-28T22:10:20;99927.33;;;5.57;100.00
22566;BME280;11449;51.330;19.378;2022-11-28T22:15:21;99927.37;;;6.30;100.00
22566;BME280;11449;51.330;19.378;2022-11-28T22:20:22;99933.41;;;5.56;100.00
22566;BME280;11449;51.330;19.378;2022-11-28T22:25:24;99933.41;;;5.56;100.00
22566;BME280;11449;51.330;19.378;2022-11-28T22:30:26;99927.82;;;6.10;100.00
22566;BME280;11449;51.330;19.378;2022-11-28T22:35:29;99927.83;;;5.90;100.00
22566;BME280;11449;51.330;19.378;2022-11-28T22:40:31;99926.08;;;6.09;100.00
22566;BME280;11449;51.330;19.378;2022-11-28T22:45:33;99924.72;;;6.35;100.00
22566;BME280;11449;51.330;19.378;2022-11-28T22:50:37;99928.70;;;5.98;100.00
22566;BME280;11449;51.330;19.378;2022-11-28T22:55:39;99937.39;;;5.87;100.00
22566;BME280;11449;51.330;19.378;2022-11-28T23:00:41;99934.31;;;5.78;100.00
22566;BME280;11449;51.330;19.378;2022-11-28T23:05:42;99931.29;;;5.92;100.00
22566;BME280;11449;51.330;19.378;2022-11-28T23:10:43;99940.37;;;5.59;100.00
22566;BME280;11449;51.330;19.378;2022-11-28T23:15:44;99940.37;;;5.59;100.00
22566;BME280;11449;51.330;19.378;2022-11-28T23:20:46;99930.83;;;5.59;100.00
22566;BME280;11449;51.330;19.378;2022-11-28T23:25:47;99930.83;;;5.59;100.00
22566;BME280;11449;51.330;19.378;2022-11-28T23:30:48;99935.22;;;5.86;100.00
22566;BME280;11449;51.330;19.378;2022-11-28T23:35:50;99935.20;;;5.89;100.00
22566;BME280;11449;51.330;19.378;2022-11-28T23:40:55;99935.20;;;5.89;100.00
22566;BME280;11449;51.330;19.378;2022-11-28T23:45:57;99928.19;;;5.43;100.00
22566;BME280;11449;51.330;19.378;2022-11-28T23:50:58;99930.83;;;5.67;100.00
22566;BME280;11449;51.330;19.378;2022-11-28T23:56:04;99920.77;;;5.27;100.00
